createdAt,value
2023-04-18T00:01:56.112Z,98836.66
2023-04-18T00:04:23.416Z,98846.50
2023-04-18T00:06:50.720Z,98839.28
2023-04-18T00:09:17.840Z,98828.22
2023-04-18T00:11:45.305Z,98841.81
2023-04-18T00:14:12.589Z,98843.59
2023-04-18T00:16:39.989Z,98845.63
2023-04-18T00:19:08.741Z,98840.13
2023-04-18T00:21:37.198Z,98845.56
2023-04-18T00:24:04.393Z,98844.59
2023-04-18T00:26:31.421Z,98839.16
2023-04-18T00:28:58.512Z,98836.66
2023-04-18T00:31:26.030Z,98840.03
2023-04-18T00:33:53.387Z,98835.09
2023-04-18T00:36:20.572Z,98833.13
2023-04-18T00:38:47.613Z,98830.66
2023-04-18T00:41:15.250Z,98826.72
2023-04-18T00:43:42.301Z,98815.84
2023-04-18T00:46:10.830Z,98834.59
2023-04-18T00:48:39.079Z,98831.88
2023-04-18T00:51:07.577Z,98818.28
2023-04-18T00:53:34.743Z,98824.00
2023-04-18T00:56:02.093Z,98815.84
2023-04-18T00:58:29.807Z,98824.06
2023-04-18T01:00:56.825Z,98820.34
2023-04-18T01:03:25.823Z,98809.38
2023-04-18T01:05:54.868Z,98813.13
2023-04-18T01:08:23.803Z,98813.59
2023-04-18T01:10:52.277Z,98810.13
2023-04-18T01:13:21.562Z,98814.56
2023-04-18T01:15:50.617Z,98810.34
2023-04-18T01:18:21.264Z,98817.75
2023-04-18T01:20:51.577Z,98813.25
2023-04-18T01:23:20.521Z,98819.72
2023-04-18T01:25:51.001Z,98814.56
2023-04-18T01:28:21.881Z,98816.22
2023-04-18T01:30:49.341Z,98816.06
2023-04-18T01:33:16.490Z,98820.75
2023-04-18T01:35:43.534Z,98816.31
2023-04-18T01:38:12.016Z,98824.22
2023-04-18T01:40:39.647Z,98824.00
2023-04-18T01:43:06.796Z,98821.84
2023-04-18T01:45:33.961Z,98816.94
2023-04-18T01:48:04.962Z,98820.13
2023-04-18T01:50:33.385Z,98823.13
2023-04-18T01:53:01.327Z,98811.97
2023-04-18T01:55:29.859Z,98814.91
2023-04-18T01:57:57.281Z,98818.38
2023-04-18T02:00:25.104Z,98812.19
2023-04-18T02:02:53.729Z,98816.66
2023-04-18T02:05:21.450Z,98810.47
2023-04-18T02:07:51.082Z,98807.75
2023-04-18T02:10:20.132Z,98813.94
2023-04-18T02:12:48.659Z,98807.75
2023-04-18T02:15:17.778Z,98799.81
2023-04-18T02:17:45.965Z,98800.25
2023-04-18T02:20:13.483Z,98804.22
2023-04-18T02:22:41.867Z,98800.25
2023-04-18T02:25:10.998Z,98799.53
2023-04-18T02:27:38.095Z,98804.50
2023-04-18T02:30:06.267Z,98802.72
2023-04-18T02:32:34.678Z,98808.25
2023-04-18T02:35:02.709Z,98800.06
2023-04-18T02:37:31.458Z,98807.00
2023-04-18T02:39:59.338Z,98806.00
2023-04-18T02:42:26.734Z,98810.97
2023-04-18T02:44:53.886Z,98811.88
2023-04-18T02:47:22.303Z,98809.16
2023-04-18T02:49:50.638Z,98807.97
2023-04-18T02:52:18.753Z,98804.78
2023-04-18T02:54:46.608Z,98808.25
2023-04-18T02:57:14.344Z,98803.06
2023-04-18T02:59:41.659Z,98812.22
2023-04-18T03:02:08.734Z,98812.72
2023-04-18T03:04:38.924Z,98813.75
2023-04-18T03:07:09.521Z,98816.00
2023-04-18T03:09:36.764Z,98816.75
2023-04-18T03:12:03.904Z,98821.22
2023-04-18T03:14:30.970Z,98806.38
2023-04-18T03:17:09.152Z,98809.84
2023-04-18T03:19:37.632Z,98808.94
2023-04-18T03:22:06.196Z,98816.13
2023-04-18T03:24:34.172Z,98817.63
2023-04-18T03:27:02.088Z,98816.13
2023-04-18T03:29:29.680Z,98814.63
2023-04-18T03:31:57.446Z,98815.84
2023-04-18T03:34:24.774Z,98825.50
2023-04-18T03:36:52.676Z,98809.19
2023-04-18T03:39:20.949Z,98803.47
2023-04-18T03:41:48.156Z,98805.97
2023-04-18T03:44:15.666Z,98809.72
2023-04-18T03:46:43.052Z,98816.69
2023-04-18T03:49:10.318Z,98812.72
2023-04-18T03:51:47.945Z,98805.31
2023-04-18T03:54:18.606Z,98809.03
2023-04-18T03:56:45.764Z,98802.38
2023-04-18T03:59:12.886Z,98811.28
2023-04-18T04:01:39.981Z,98809.03
2023-04-18T04:04:09.048Z,98813.25
2023-04-18T04:06:36.433Z,98811.09
2023-04-18T04:09:03.591Z,98807.22
2023-04-18T04:11:30.637Z,98813.41
2023-04-18T04:13:57.736Z,98815.84
2023-04-18T04:16:25.018Z,98820.34
2023-04-18T04:18:52.054Z,98824.00
2023-04-18T04:21:21.051Z,98823.53
2023-04-18T04:23:48.389Z,98819.59
2023-04-18T04:26:15.735Z,98818.84
2023-04-18T04:28:43.339Z,98830.66
2023-04-18T04:31:10.654Z,98833.38
2023-04-18T04:33:38.759Z,98828.22
2023-04-18T04:36:08.957Z,98832.44
2023-04-18T04:38:38.302Z,98828.50
2023-04-18T04:41:09.156Z,98834.22
2023-04-18T04:43:36.289Z,98831.00
2023-04-18T04:46:04.134Z,98831.47
2023-04-18T04:48:31.282Z,98831.97
2023-04-18T04:50:59.682Z,98825.22
2023-04-18T04:53:30.177Z,98829.66
2023-04-18T04:55:57.654Z,98832.56
2023-04-18T04:58:24.814Z,98833.53
2023-04-18T05:00:52.632Z,98832.31
2023-04-18T05:03:19.992Z,98840.69
2023-04-18T05:05:47.475Z,98836.66
2023-04-18T05:08:14.621Z,98837.88
2023-04-18T05:10:43.131Z,98844.28
2023-04-18T05:13:10.265Z,98840.53
2023-04-18T05:15:37.876Z,98841.50
2023-04-18T05:18:05.031Z,98857.06
2023-04-18T05:20:32.234Z,98851.34
2023-04-18T05:22:59.304Z,98860.25
2023-04-18T05:25:26.849Z,98854.34
2023-04-18T05:27:53.972Z,98858.38
2023-04-18T05:30:21.308Z,98852.94
2023-04-18T05:32:48.428Z,98854.59
2023-04-18T05:35:15.649Z,98861.75
2023-04-18T05:37:42.737Z,98872.56
2023-04-18T05:40:10.611Z,98878.69
2023-04-18T05:42:37.696Z,98869.13
2023-04-18T05:45:05.259Z,98871.56
2023-04-18T05:47:33.492Z,98870.06
2023-04-18T05:50:00.630Z,98873.53
2023-04-18T05:52:27.687Z,98865.56
2023-04-18T05:54:54.841Z,98880.47
2023-04-18T05:57:21.884Z,98883.00
2023-04-18T05:59:48.950Z,98877.75
2023-04-18T06:02:16.239Z,98875.69
2023-04-18T06:04:43.864Z,98885.00
2023-04-18T06:07:11.221Z,98887.81
2023-04-18T06:09:38.562Z,98886.03
2023-04-18T06:12:05.824Z,98889.22
2023-04-18T06:14:32.926Z,98893.63
2023-04-18T06:17:00.146Z,98888.47
2023-04-18T06:19:27.208Z,98890.72
2023-04-18T06:21:54.314Z,98899.06
2023-04-18T06:24:21.510Z,98898.03
2023-04-18T06:26:48.593Z,98898.78
2023-04-18T06:29:15.717Z,98901.97
2023-04-18T06:31:45.526Z,98906.66
2023-04-18T06:34:12.966Z,98896.72
2023-04-18T06:36:40.417Z,98902.91
2023-04-18T06:39:07.811Z,98898.22
2023-04-18T06:41:34.935Z,98901.22
2023-04-18T06:44:03.447Z,98898.03
2023-04-18T06:46:32.507Z,98898.59
2023-04-18T06:48:59.739Z,98898.59
2023-04-18T06:51:27.343Z,98903.84
2023-04-18T06:53:54.490Z,98908.25
2023-04-18T06:56:21.567Z,98914.91
2023-04-18T06:58:49.387Z,98910.41
2023-04-18T07:01:16.629Z,98902.91
2023-04-18T07:03:44.054Z,98906.09
2023-04-18T07:06:11.530Z,98920.06
2023-04-18T07:08:38.662Z,98919.97
2023-04-18T07:11:06.683Z,98919.22
2023-04-18T07:13:34.192Z,98916.03
2023-04-18T07:16:01.496Z,98929.13
2023-04-18T07:18:37.511Z,98920.72
2023-04-18T07:21:09.054Z,98926.72
2023-04-18T07:23:36.233Z,98921.00
2023-04-18T07:26:05.341Z,98925.22
2023-04-18T07:28:33.221Z,98922.50
2023-04-18T07:31:01.224Z,98928.22
2023-04-18T07:33:31.600Z,98924.56
2023-04-18T07:36:01.545Z,98934.03
2023-04-18T07:38:28.674Z,98925.69
2023-04-18T07:40:59.875Z,98927.47
2023-04-18T07:43:27.021Z,98932.91
2023-04-18T07:45:54.372Z,98932.91
2023-04-18T07:48:25.403Z,98928.41
2023-04-18T07:50:52.966Z,98929.63
2023-04-18T07:53:20.230Z,98930.09
2023-04-18T07:55:47.261Z,98937.78
2023-04-18T07:58:14.594Z,98930.63
2023-04-18T08:00:43.911Z,98942.84
2023-04-18T08:03:12.874Z,98938.72
2023-04-18T08:05:42.404Z,98934.56
2023-04-18T08:08:11.676Z,98940.00
2023-04-18T08:10:39.093Z,98943.94
2023-04-18T08:13:06.626Z,98947.91
2023-04-18T08:15:34.136Z,98944.69
2023-04-18T08:18:01.818Z,98943.75
2023-04-18T08:20:28.968Z,98941.34
2023-04-18T08:25:26.206Z,98941.97
2023-04-18T08:27:53.278Z,98939.56
2023-04-18T08:30:20.428Z,98948.47
2023-04-18T08:32:47.633Z,98947.06
2023-04-18T08:35:14.797Z,98955.00
2023-04-18T08:37:41.921Z,98957.25
2023-04-18T08:40:09.214Z,98951.53
2023-04-18T08:42:39.558Z,98956.50
2023-04-18T08:45:07.004Z,98950.78
2023-04-18T08:47:35.369Z,98952.56
2023-04-18T08:50:02.481Z,98956.03
2023-04-18T08:52:31.160Z,98955.47
2023-04-18T08:54:58.331Z,98964.13
2023-04-18T08:57:28.158Z,98952.00
2023-04-18T08:59:55.398Z,98960.66
2023-04-18T09:02:35.167Z,98961.41
2023-04-18T09:05:11.224Z,98960.66
2023-04-18T09:07:38.436Z,98959.16
2023-04-18T09:10:06.230Z,98958.41
2023-04-18T09:12:34.551Z,98963.38
2023-04-18T09:15:16.364Z,98956.13
2023-04-18T09:17:52.395Z,98958.00
2023-04-18T09:20:41.567Z,98958.94
2023-04-18T09:23:15.180Z,98960.44
2023-04-18T09:25:44.805Z,98956.50
2023-04-18T09:28:33.172Z,98961.19
2023-04-18T09:31:04.385Z,98964.66
2023-04-18T09:33:34.659Z,98965.13
2023-04-18T09:36:24.944Z,98968.16
2023-04-18T09:38:56.047Z,98972.94
2023-04-18T09:41:23.713Z,98964.59
2023-04-18T09:44:10.797Z,98964.13
2023-04-18T09:46:39.539Z,98966.38
2023-04-18T09:49:07.915Z,98965.41
2023-04-18T09:51:36.608Z,98959.97
2023-04-18T09:54:04.446Z,98967.19
2023-04-18T09:56:32.752Z,98966.72
2023-04-18T09:59:08.742Z,98966.53
2023-04-18T10:01:36.092Z,98961.09
2023-04-18T10:04:06.450Z,98961.47
2023-04-18T10:06:34.557Z,98971.53
2023-04-18T10:09:03.350Z,98963.38
2023-04-18T10:11:31.314Z,98964.13
2023-04-18T10:14:02.873Z,98965.13
2023-04-18T10:16:30.221Z,98970.19
2023-04-18T10:18:58.351Z,98960.53
2023-04-18T10:21:28.620Z,98963.44
2023-04-18T10:23:55.842Z,98966.38
2023-04-18T10:26:47.382Z,98963.91
2023-04-18T10:29:14.737Z,98962.16
2023-04-18T10:31:42.196Z,98964.59
2023-04-18T10:34:17.468Z,98960.94
2023-04-18T10:37:04.174Z,98965.88
2023-04-18T10:39:31.307Z,98962.69
2023-04-18T10:41:58.373Z,98964.19
2023-04-18T10:44:25.910Z,98968.13
2023-04-18T10:46:53.021Z,98961.75
2023-04-18T10:49:27.016Z,98955.84
2023-04-18T10:51:58.363Z,98961.09
2023-04-18T10:54:35.825Z,98965.88
2023-04-18T10:57:04.188Z,98957.22
2023-04-18T10:59:32.985Z,98952.81
2023-04-18T11:02:20.849Z,98961.81
2023-04-18T11:04:58.997Z,98957.59
2023-04-18T11:07:45.071Z,98956.63
2023-04-18T11:10:13.111Z,98959.66
2023-04-18T11:12:40.855Z,98958.50
2023-04-18T11:15:22.108Z,98965.22
2023-04-18T11:18:00.393Z,98961.56
2023-04-18T11:20:28.510Z,98961.56
2023-04-18T11:22:59.989Z,98950.66
2023-04-18T11:25:29.320Z,98956.41
2023-04-18T11:27:59.506Z,98953.22
2023-04-18T11:30:26.838Z,98952.47
2023-04-18T11:32:54.328Z,98947.56
2023-04-18T11:35:21.531Z,98956.00
2023-04-18T11:37:50.325Z,98945.88
2023-04-18T11:40:17.621Z,98950.84
2023-04-18T11:42:45.060Z,98959.53
2023-04-18T11:45:13.733Z,98959.09
2023-04-18T11:47:42.793Z,98962.06
2023-04-18T11:50:11.846Z,98953.41
2023-04-18T11:52:41.389Z,98953.94
2023-04-18T11:55:17.465Z,98958.19
2023-04-18T11:57:58.681Z,98959.69
2023-04-18T12:00:33.099Z,98957.00
2023-04-18T12:03:01.978Z,98965.66
2023-04-18T12:05:31.867Z,98955.53
2023-04-18T12:08:13.255Z,98951.66
2023-04-18T12:10:51.722Z,98963.78
2023-04-18T12:13:19.861Z,98959.63
2023-04-18T12:15:47.362Z,98953.13
2023-04-18T12:18:15.704Z,98949.19
2023-04-18T12:20:47.464Z,98953.41
2023-04-18T12:23:34.301Z,98959.41
2023-04-18T12:26:12.117Z,98954.22
2023-04-18T12:28:39.235Z,98952.72
2023-04-18T12:31:07.308Z,98953.97
2023-04-18T12:33:36.621Z,98952.66
2023-04-18T12:36:05.399Z,98958.31
2023-04-18T12:38:32.538Z,98956.81
2023-04-18T12:40:59.769Z,98955.34
2023-04-18T12:43:26.881Z,98949.88
2023-04-18T12:45:54.322Z,98943.47
2023-04-18T12:48:21.396Z,98948.72
2023-04-18T12:50:48.666Z,98950.41
2023-04-18T12:53:15.786Z,98954.38
2023-04-18T12:55:43.046Z,98949.16
2023-04-18T12:58:10.176Z,98964.00
2023-04-18T13:00:37.273Z,98960.50
2023-04-18T13:03:04.893Z,98947.16
2023-04-18T13:05:34.004Z,98960.03
2023-04-18T13:10:31.978Z,98970.94
2023-04-18T13:12:59.198Z,98965.47
2023-04-18T13:15:27.576Z,98962.00
2023-04-18T13:17:56.656Z,98972.41
2023-04-18T13:20:23.882Z,98961.31
2023-04-18T13:22:54.079Z,98958.84
2023-04-18T13:25:21.663Z,98952.22
2023-04-18T13:27:50.277Z,98958.84
2023-04-18T13:30:17.539Z,98961.31
2023-04-18T13:32:44.653Z,98963.78
2023-04-18T13:35:11.802Z,98964.03
2023-04-18T13:37:39.858Z,98964.78
2023-04-18T13:40:08.115Z,98960.38
2023-04-18T13:42:36.792Z,98960.63
2023-04-18T13:45:04.408Z,98955.72
2023-04-18T13:47:31.550Z,98955.72
2023-04-18T13:49:58.702Z,98959.41
2023-04-18T13:52:26.355Z,98958.66
2023-04-18T13:54:53.450Z,98962.41
2023-04-18T13:57:20.946Z,98953.00
2023-04-18T13:59:48.096Z,98959.47
2023-04-18T14:02:15.391Z,98958.75
2023-04-18T14:04:42.718Z,98955.25
2023-04-18T14:07:09.909Z,98952.25
2023-04-18T14:09:36.964Z,98961.66
2023-04-18T14:12:04.304Z,98954.19
2023-04-18T14:14:31.455Z,98960.38
2023-04-18T14:16:58.530Z,98957.16
2023-04-18T14:19:26.696Z,98957.16
2023-04-18T14:21:53.813Z,98959.16
2023-04-18T14:24:20.935Z,98953.97
2023-04-18T14:26:48.542Z,98958.44
2023-04-18T14:29:15.916Z,98960.72
2023-04-18T14:31:43.220Z,98954.03
2023-04-18T14:34:10.484Z,98957.50
2023-04-18T14:36:37.644Z,98962.00
2023-04-18T14:39:05.460Z,98954.81
2023-04-18T14:41:32.936Z,98956.53
2023-04-18T14:44:00.166Z,98952.59
2023-04-18T14:46:28.412Z,98957.34
2023-04-18T14:48:55.807Z,98960.84
2023-04-18T14:51:23.407Z,98961.56
2023-04-18T14:53:50.505Z,98957.34
2023-04-18T14:56:20.996Z,98957.63
2023-04-18T14:58:48.360Z,98960.34
2023-04-18T15:01:17.429Z,98957.88
2023-04-18T15:03:45.220Z,98954.97
2023-04-18T15:06:12.888Z,98960.69
2023-04-18T15:08:40.057Z,98953.25
2023-04-18T15:11:10.403Z,98965.66
2023-04-18T15:13:37.824Z,98953.00
2023-04-18T15:16:05.260Z,98953.47
2023-04-18T15:18:32.408Z,98950.75
2023-04-18T15:21:00.349Z,98954.97
2023-04-18T15:23:27.596Z,98949.78
2023-04-18T15:25:54.754Z,98958.97
2023-04-18T15:28:21.787Z,98963.00
2023-04-18T15:30:48.897Z,98952.59
2023-04-18T15:33:17.879Z,98952.59
2023-04-18T15:35:45.636Z,98955.63
2023-04-18T15:38:13.108Z,98949.94
2023-04-18T15:40:40.248Z,98955.41
2023-04-18T15:43:07.354Z,98949.69
2023-04-18T15:45:34.442Z,98954.66
2023-04-18T15:48:02.181Z,98959.88
2023-04-18T15:50:30.869Z,98956.63
2023-04-18T15:53:00.169Z,98953.66
2023-04-18T15:55:27.265Z,98956.63
2023-04-18T15:57:55.619Z,98953.66
2023-04-18T16:00:23.351Z,98957.31
2023-04-18T16:02:50.817Z,98954.31
2023-04-18T16:05:18.454Z,98948.88
2023-04-18T16:07:45.775Z,98952.34
2023-04-18T16:10:15.114Z,98957.59
2023-04-18T16:12:42.408Z,98961.06
2023-04-18T16:15:10.018Z,98961.34
2023-04-18T16:17:37.787Z,98954.91
2023-04-18T16:20:09.181Z,98958.94
2023-04-18T16:22:37.219Z,98954.72
2023-04-18T16:25:04.832Z,98962.91
2023-04-18T16:27:33.016Z,98956.69
2023-04-18T16:30:00.441Z,98953.47
2023-04-18T16:32:27.856Z,98954.97
2023-04-18T16:34:55.118Z,98960.44
2023-04-18T16:37:22.194Z,98956.97
2023-04-18T16:39:49.281Z,98961.91
2023-04-18T16:42:16.506Z,98954.50
2023-04-18T16:44:45.281Z,98956.97
2023-04-18T16:47:12.371Z,98952.00
2023-04-18T16:49:39.516Z,98946.53
2023-04-18T16:52:06.721Z,98952.25
2023-04-18T16:54:33.822Z,98954.00
2023-04-18T16:57:01.932Z,98956.22
2023-04-18T16:59:28.994Z,98958.19
2023-04-18T17:01:56.243Z,98959.69
2023-04-18T17:04:27.237Z,98962.16
2023-04-18T17:06:57.288Z,98961.66
2023-04-18T17:09:24.461Z,98958.94
2023-04-18T17:11:51.588Z,98962.91
2023-04-18T17:14:18.835Z,98965.63
2023-04-18T17:16:46.081Z,98966.38
2023-04-18T17:19:13.376Z,98959.88
2023-04-18T17:21:40.650Z,98965.31
2023-04-18T17:24:07.957Z,98970.78
2023-04-18T17:26:36.970Z,98973.50
2023-04-18T17:29:04.629Z,98970.31
2023-04-18T17:31:31.940Z,98962.91
2023-04-18T17:33:59.590Z,98966.09
2023-04-18T17:36:27.196Z,98975.28
2023-04-18T17:38:54.645Z,98968.59
2023-04-18T17:41:22.110Z,98972.81
2023-04-18T17:43:51.079Z,98966.88
2023-04-18T17:46:18.422Z,98968.66
2023-04-18T17:48:45.596Z,98970.16
2023-04-18T17:51:13.007Z,98967.91
2023-04-18T17:53:40.093Z,98965.66
2023-04-18T17:56:07.269Z,98964.91
2023-04-18T17:58:34.434Z,98968.38
2023-04-18T18:01:01.544Z,98969.63
2023-04-18T18:03:29.187Z,98973.38
2023-04-18T18:05:56.414Z,98981.81
2023-04-18T18:08:24.204Z,98979.09
2023-04-18T18:10:51.894Z,98977.09
2023-04-18T18:13:18.947Z,98985.28
2023-04-18T18:15:46.053Z,98984.28
2023-04-18T18:18:13.515Z,98981.31
2023-04-18T18:20:43.910Z,98981.31
2023-04-18T18:23:11.073Z,98985.78
2023-04-18T18:25:38.362Z,98985.78
2023-04-18T18:28:07.073Z,98987.75
2023-04-18T18:30:34.417Z,98981.81
2023-04-18T18:33:01.635Z,98994.47
2023-04-18T18:35:28.748Z,98995.50
2023-04-18T18:37:55.928Z,98992.56
2023-04-18T18:40:23.231Z,99002.22
2023-04-18T18:42:51.455Z,98992.81
2023-04-18T18:45:19.962Z,98995.34
2023-04-18T18:47:47.793Z,98995.84
2023-04-18T18:50:14.846Z,98996.41
2023-04-18T18:52:43.090Z,99000.13
2023-04-18T18:55:11.035Z,98997.66
2023-04-18T18:57:38.231Z,98997.66
2023-04-18T19:00:10.403Z,99008.06
2023-04-18T19:02:38.721Z,99008.25
2023-04-18T19:05:08.579Z,99000.09
2023-04-18T19:07:35.929Z,99001.56
2023-04-18T19:10:03.461Z,98999.13
2023-04-18T19:12:31.018Z,99004.84
2023-04-18T19:14:58.509Z,98999.16
2023-04-18T19:17:25.717Z,98991.72
2023-04-18T19:19:53.342Z,98996.66
2023-04-18T19:22:20.413Z,98995.91
2023-04-18T19:24:47.622Z,98994.69
2023-04-18T19:27:14.753Z,99000.88
2023-04-18T19:29:41.810Z,98999.16
2023-04-18T19:32:09.368Z,98996.25
2023-04-18T19:34:36.524Z,98996.72
2023-04-18T19:37:03.836Z,98992.78
2023-04-18T19:39:31.037Z,98998.97
2023-04-18T19:41:58.058Z,98997.72
2023-04-18T19:44:25.233Z,98996.97
2023-04-18T19:46:52.318Z,98999.97
2023-04-18T19:49:19.416Z,98996.75
2023-04-18T19:51:46.515Z,98992.53
2023-04-18T19:54:14.341Z,98987.81
2023-04-18T19:56:43.874Z,98995.06
2023-04-18T19:59:11.259Z,98991.09
2023-04-18T20:01:38.425Z,98984.16
2023-04-18T20:04:05.997Z,98992.34
2023-04-18T20:06:35.321Z,98991.09
2023-04-18T20:09:02.490Z,98981.69
2023-04-18T20:11:29.582Z,98987.13
2023-04-18T20:13:56.688Z,98986.66
2023-04-18T20:16:23.784Z,98987.13
2023-04-18T20:18:51.941Z,98973.75
2023-04-18T20:21:20.655Z,98983.69
2023-04-18T20:23:47.699Z,98989.16
2023-04-18T20:26:14.914Z,98981.75
2023-04-18T20:28:41.990Z,98981.75
2023-04-18T20:31:11.470Z,98978.53
2023-04-18T20:33:38.553Z,98970.59
2023-04-18T20:36:07.357Z,98974.81
2023-04-18T20:38:36.858Z,98972.84
2023-04-18T20:41:04.148Z,98973.31
2023-04-18T20:43:37.347Z,98964.38
2023-04-18T20:46:04.509Z,98962.16
2023-04-18T20:48:31.664Z,98958.19
2023-04-18T20:50:58.857Z,98966.38
2023-04-18T20:53:27.077Z,98965.41
2023-04-18T20:55:54.302Z,98966.88
2023-04-18T20:58:21.943Z,98971.09
2023-04-18T21:00:49.609Z,98977.81
2023-04-18T21:03:16.971Z,98973.84
2023-04-18T21:05:46.016Z,98976.84
2023-04-18T21:08:13.472Z,98966.19
2023-04-18T21:10:40.543Z,98973.41
2023-04-18T21:13:09.497Z,98967.94
2023-04-18T21:15:36.643Z,98974.38
2023-04-18T21:18:04.260Z,98966.44
2023-04-18T21:20:31.621Z,98962.22
2023-04-18T21:22:59.381Z,98970.66
2023-04-18T21:25:26.784Z,98964.91
2023-04-18T21:27:53.855Z,98965.66
2023-04-18T21:32:51.487Z,98968.66
2023-04-18T21:35:20.205Z,98953.78
2023-04-18T21:37:48.571Z,98949.56
2023-04-18T21:40:15.915Z,98948.31
2023-04-18T21:42:43.548Z,98947.09
2023-04-18T21:45:11.763Z,98954.03
2023-04-18T21:47:39.356Z,98946.09
2023-04-18T21:50:07.113Z,98941.41
2023-04-18T21:52:34.428Z,98941.63
2023-04-18T21:55:01.634Z,98941.38
2023-04-18T21:57:28.864Z,98939.88
2023-04-18T21:59:57.286Z,98936.88
2023-04-18T22:02:26.662Z,98941.09
2023-04-18T22:04:53.880Z,98936.88
2023-04-18T22:07:21.469Z,98934.91
2023-04-18T22:09:50.605Z,98936.88
2023-04-18T22:12:17.797Z,98933.19
2023-04-18T22:14:48.166Z,98922.28
2023-04-18T22:17:15.294Z,98919.28
2023-04-18T22:19:44.290Z,98916.28
2023-04-18T22:22:11.524Z,98914.06
2023-04-18T22:24:38.728Z,98919.50
2023-04-18T22:27:06.134Z,98916.28
2023-04-18T22:29:33.196Z,98909.34
2023-04-18T22:32:01.506Z,98903.69
2023-04-18T22:34:28.922Z,98902.69
2023-04-18T22:36:55.976Z,98899.72
2023-04-18T22:39:24.678Z,98904.13
2023-04-18T22:41:51.770Z,98908.84
2023-04-18T22:44:18.825Z,98901.41
2023-04-18T22:46:48.382Z,98910.31
2023-04-18T22:49:15.586Z,98911.81
2023-04-18T22:51:43.965Z,98903.84
2023-04-18T22:54:11.072Z,98900.16
2023-04-18T22:56:38.140Z,98893.22
2023-04-18T22:59:05.161Z,98900.38
2023-04-18T23:01:32.345Z,98890.44
2023-04-18T23:04:00.023Z,98893.41
2023-04-18T23:06:28.356Z,98888.69
2023-04-18T23:08:55.690Z,98886.72
2023-04-18T23:11:22.768Z,98887.72
2023-04-18T23:13:49.819Z,98887.22
2023-04-18T23:16:17.008Z,98883.25
2023-04-18T23:18:44.149Z,98884.75
2023-04-18T23:21:12.604Z,98875.06
2023-04-18T23:23:39.695Z,98881.75
2023-04-18T23:26:16.177Z,98877.28
2023-04-18T23:28:43.344Z,98880.97
2023-04-18T23:31:10.562Z,98870.56
2023-04-18T23:33:37.630Z,98879.00
2023-04-18T23:36:04.793Z,98878.00
2023-04-18T23:38:32.424Z,98876.75
2023-04-18T23:40:59.720Z,98871.59
2023-04-18T23:43:26.776Z,98872.03
2023-04-18T23:45:53.803Z,98871.31
2023-04-18T23:48:20.919Z,98872.31
2023-04-18T23:50:49.315Z,98862.63
2023-04-18T23:53:17.409Z,98864.91
2023-04-18T23:55:44.646Z,98854.72
2023-04-18T23:58:11.992Z,98853.50
